Time;durP1;ratioP1;P1;durP2;ratioP2;P2;SDS_P1;SDS_P2;PMS_P1;PMS_P2;Temp;Humidity;BMP_temperature;BMP_pressure;BME280_temperature;BME280_humidity;BME280_pressure;Samples;Min_cycle;Max_cycle;Signal;HPM_P1;HPM_P2
2021/09/08 04:35:10;;;;;;;16.48;9.68;;;;;;;5.92;77.33;101456.87;1706106;83;21096;-37
2021/09/08 04:37:42;;;;;;;13.40;7.95;;;;;;;6.14;76.87;101443.80;1607280;86;21695;-39
2021/09/08 04:40:15;;;;;;;11.43;7.22;;;;;;;6.26;76.58;101441.67;1607142;88;21062;-39
2021/09/08 04:46:43;;;;;;;11.97;6.47;;;;;;;6.56;76.27;101440.97;1684777;81;21082;-38
2021/09/08 04:49:10;;;;;;;15.63;5.75;;;;;;;6.73;75.86;101446.75;1651523;85;21088;-37
2021/09/08 04:54:09;;;;;;;14.87;5.67;;;;;;;6.90;75.53;101444.30;1672311;83;21043;-38
2021/09/08 04:56:57;;;;;;;18.80;6.37;;;;;;;7.02;75.47;101442.52;1653911;84;21223;-38
2021/09/08 04:59:47;;;;;;;20.00;8.68;;;;;;;7.15;75.49;101442.06;1662673;83;21084;-37
2021/09/08 05:02:31;;;;;;;12.23;6.95;;;;;;;7.36;75.49;101437.55;1682804;82;21144;-40
2021/09/08 05:05:02;;;;;;;11.12;5.95;;;;;;;7.51;75.46;101437.54;1624446;85;21830;-37
2021/09/08 05:07:32;;;;;;;28.50;14.07;;;;;;;7.64;75.46;101435.34;1619165;85;21197;-39
2021/09/08 05:10:01;;;;;;;17.15;8.53;;;;;;;7.76;75.35;101445.23;1537388;86;21061;-38
2021/09/08 05:12:37;;;;;;;16.80;7.37;;;;;;;7.88;75.14;101439.50;1582986;86;21200;-40
2021/09/08 05:15:48;;;;;;;16.12;6.78;;;;;;;8.05;74.87;101445.20;1590966;87;21644;-40
2021/09/08 05:18:42;;;;;;;17.15;6.87;;;;;;;8.28;74.29;101450.64;1624243;85;21748;-40
2021/09/08 05:36:36;;;;;;;31.80;7.35;;;;;;;9.35;71.65;101437.74;1535835;90;21123;-38
2021/09/08 05:43:49;;;;;;;17.92;8.48;;;;;;;9.73;70.70;101438.58;1554228;89;21631;-37
2021/09/08 06:01:27;;;;;;;32.13;15.93;;;;;;;10.75;65.64;101442.78;1591176;85;21131;-36
2021/09/08 06:04:21;;;;;;;28.42;12.50;;;;;;;10.94;65.54;101443.53;1597137;87;22748;-37
2021/09/08 06:10:37;;;;;;;37.28;23.83;;;;;;;11.31;64.52;101445.45;1591136;87;21120;-38
2021/09/08 06:13:13;;;;;;;23.42;12.40;;;;;;;11.56;64.25;101441.45;1644486;82;21140;-39
2021/09/08 06:26:21;;;;;;;16.75;9.38;;;;;;;12.43;61.96;101430.30;1687975;81;21015;-40
2021/09/08 06:32:51;;;;;;;25.57;10.95;;;;;;;12.85;60.61;101434.64;1676480;83;21524;-38
2021/09/08 06:35:42;;;;;;;23.07;10.32;;;;;;;13.03;60.41;101430.41;1670368;83;21001;-38
2021/09/08 06:46:42;;;;;;;28.73;9.55;;;;;;;13.67;59.15;101431.30;1695309;80;21035;-40
2021/09/08 06:49:16;;;;;;;19.30;10.10;;;;;;;13.93;58.33;101431.88;1682426;81;21084;-40
2021/09/08 06:51:44;;;;;;;23.87;9.20;;;;;;;14.11;58.07;101429.31;1645267;82;21905;-40
2021/09/08 06:54:23;;;;;;;26.90;8.28;;;;;;;14.27;57.34;101426.30;1639977;83;21029;-38
2021/09/08 06:57:27;;;;;;;16.82;8.55;;;;;;;14.41;56.59;101426.31;1652816;82;21139;-40
2021/09/08 07:04:02;;;;;;;16.70;8.40;;;;;;;14.72;55.11;101421.55;1730103;80;21143;-37
2021/09/08 07:06:33;;;;;;;14.93;8.15;;;;;;;14.94;54.94;101417.18;1704246;80;21528;-38
2021/09/08 07:09:01;;;;;;;12.58;7.67;;;;;;;15.10;54.89;101411.47;1717140;81;21083;-38
2021/09/08 07:11:30;;;;;;;21.33;7.58;;;;;;;15.27;54.69;101412.77;1696112;81;21031;-39
2021/09/08 07:14:01;;;;;;;19.75;6.72;;;;;;;15.41;53.07;101401.30;1701640;81;21801;-39
2021/09/08 07:16:39;;;;;;;8.00;5.70;;;;;;;15.57;52.75;101399.50;1713847;81;21000;-37
2021/09/08 07:21:48;;;;;;;7.37;4.60;;;;;;;15.89;48.43;101394.16;1732412;80;21654;-37
2021/09/08 07:24:38;;;;;;;12.13;5.40;;;;;;;16.01;47.74;101398.50;1721247;81;21067;-37
2021/09/08 07:43:54;;;;;;;7.33;3.50;;;;;;;17.03;41.07;101392.95;1596821;85;21773;-39
2021/09/08 07:50:44;;;;;;;9.43;2.80;;;;;;;17.31;39.18;101382.98;1674080;80;21248;31
2021/09/08 07:53:26;;;;;;;5.78;2.85;;;;;;;17.42;37.76;101378.90;1661725;83;21174;-39
2021/09/08 07:56:33;;;;;;;6.97;2.52;;;;;;;17.50;38.48;101379.23;1643816;85;21150;-37
2021/09/08 08:03:10;;;;;;;5.65;2.47;;;;;;;17.71;36.01;101373.27;1643496;85;21156;-42
2021/09/08 08:05:55;;;;;;;6.85;2.95;;;;;;;17.77;35.47;101377.19;1635977;85;21006;-38
2021/09/08 08:29:45;;;;;;;6.78;2.27;;;;;;;18.53;34.64;101372.13;1546913;90;20519;-40
2021/09/08 08:32:16;;;;;;;4.20;2.45;;;;;;;18.67;35.12;101368.37;1542227;90;21133;-37
2021/09/08 08:41:31;;;;;;;10.45;3.12;;;;;;;19.05;34.11;101359.34;1598038;87;21206;-37
2021/09/08 08:47:07;;;;;;;6.30;2.98;;;;;;;19.30;34.49;101355.77;1574992;85;21193;-37
2021/09/08 09:22:53;;;;;;;7.05;2.25;;;;;;;19.75;31.69;101326.58;1626719;85;21190;-36
2021/09/08 09:25:32;;;;;;;3.83;2.42;;;;;;;19.82;32.11;101325.53;1615073;86;21053;-39
2021/09/08 09:28:16;;;;;;;8.45;2.67;;;;;;;19.85;31.78;101324.16;1577631;86;21685;-36
2021/09/08 09:33:19;;;;;;;6.90;2.58;;;;;;;20.08;32.33;101313.02;1608817;86;21230;-38
2021/09/08 09:36:27;;;;;;;4.60;2.22;;;;;;;20.18;32.04;101303.92;1580478;87;21121;-39
2021/09/08 09:41:40;;;;;;;5.90;2.42;;;;;;;20.41;31.74;101298.52;1598625;87;21113;-38
2021/09/08 09:44:43;;;;;;;3.98;2.47;;;;;;;20.48;30.75;101297.93;1612643;86;21849;-36
2021/09/08 09:47:48;;;;;;;6.60;2.40;;;;;;;20.44;31.51;101283.34;1609616;86;21380;-39
2021/09/08 09:50:35;;;;;;;3.20;1.90;;;;;;;20.56;31.65;101295.48;1572449;88;21597;-39
2021/09/08 09:53:14;;;;;;;2.27;2.02;;;;;;;20.62;31.77;101289.13;1577621;87;21136;-40
2021/09/08 09:55:48;;;;;;;4.47;2.52;;;;;;;20.67;31.02;101283.24;1611286;87;21178;-37
2021/09/08 09:58:21;;;;;;;5.67;2.70;;;;;;;20.68;30.94;101286.31;1579553;87;21139;-37
2021/09/08 10:01:44;;;;;;;6.80;2.37;;;;;;;20.71;31.29;101273.83;1580934;87;21607;-37
2021/09/08 10:04:16;;;;;;;5.78;2.62;;;;;;;20.81;30.94;101281.08;1562656;89;21193;-38
2021/09/08 10:06:47;;;;;;;5.12;2.25;;;;;;;20.86;30.07;101286.28;1604445;86;21145;-40
2021/09/08 10:13:41;;;;;;;2.40;1.87;;;;;;;20.66;29.95;101273.53;1615586;85;21205;-37
2021/09/08 10:16:24;;;;;;;5.35;2.52;;;;;;;20.74;30.29;101274.19;1525498;90;21597;-38
2021/09/08 10:24:31;;;;;;;3.15;2.30;;;;;;;21.16;28.73;101271.25;1615193;86;21493;-38
2021/09/08 10:27:30;;;;;;;5.55;3.00;;;;;;;21.39;29.37;101271.50;1602174;86;21641;-38
2021/09/08 10:34:23;;;;;;;;;;;;;;;;;;;;;
2021/09/08 10:37:04;;;;;;;3.58;2.17;;;;;;;23.08;27.55;101248.22;1603683;86;21610;-41
2021/09/08 10:39:32;;;;;;;5.50;2.67;;;;;;;23.97;25.19;101257.69;1562271;85;21035;-40
2021/09/08 10:42:01;;;;;;;7.45;2.52;;;;;;;24.43;25.77;101241.58;1608594;86;21097;-41
2021/09/08 10:44:49;;;;;;;3.27;2.35;;;;;;;24.81;24.79;101234.55;1642756;84;21065;-37
2021/09/08 10:47:49;;;;;;;4.55;2.85;;;;;;;25.16;23.96;101237.00;1645551;83;21718;-40
2021/09/08 10:50:47;;;;;;;4.28;2.50;;;;;;;25.45;23.24;101228.51;1697721;82;21005;-39
2021/09/08 10:57:52;;;;;;;7.25;2.95;;;;;;;25.87;22.42;101224.73;1692502;81;21166;31
2021/09/08 11:00:35;;;;;;;2.60;2.33;;;;;;;26.08;22.14;101224.12;1557725;88;21059;-36
2021/09/08 11:09:54;;;;;;;7.42;1.98;;;;;;;26.25;22.09;101208.05;1651005;82;21623;-36
2021/09/08 11:12:53;;;;;;;5.40;2.50;;;;;;;26.09;22.35;101203.09;1609570;85;21071;-38
2021/09/08 11:15:37;;;;;;;10.20;4.55;;;;;;;25.76;22.37;101191.36;1619679;84;21745;-36
2021/09/08 11:18:56;;;;;;;5.17;2.30;;;;;;;25.18;23.08;101198.53;1623314;85;21088;-38
2021/09/08 11:21:50;;;;;;;3.98;2.58;;;;;;;24.75;23.21;101195.55;1631689;84;21180;-38
2021/09/08 11:25:01;;;;;;;4.70;2.35;;;;;;;24.19;23.80;101198.88;1677089;80;21030;-36
2021/09/08 11:28:23;;;;;;;3.95;2.50;;;;;;;23.87;24.70;101194.86;1703336;81;21057;-38
2021/09/08 11:30:52;;;;;;;3.12;2.42;;;;;;;23.64;26.08;101191.78;1705066;81;21121;-37
2021/09/08 11:33:37;;;;;;;5.25;2.50;;;;;;;23.46;25.19;101184.48;1608381;85;21602;-38
2021/09/08 11:39:00;;;;;;;10.28;2.62;;;;;;;23.28;25.73;101184.27;1647254;85;22478;-36
2021/09/08 11:41:53;;;;;;;5.22;2.70;;;;;;;23.26;25.89;101179.93;1627952;85;21188;-36
2021/09/08 11:44:23;;;;;;;5.35;2.00;;;;;;;23.13;26.51;101182.17;1622142;84;21156;-39
2021/09/08 11:46:52;;;;;;;3.22;2.30;;;;;;;23.05;26.38;101181.14;1636909;84;21160;-39
2021/09/08 11:54:02;;;;;;;41.50;21.40;;;;;;;23.04;26.39;101182.08;1685284;80;21137;-38
2021/09/08 11:57:03;;;;;;;11.15;7.67;;;;;;;22.96;27.06;101183.27;1711061;81;21716;-39
2021/09/08 11:59:42;;;;;;;5.50;2.55;;;;;;;22.88;26.79;101173.36;1635016;84;21183;-39
2021/09/08 12:02:16;;;;;;;7.85;2.98;;;;;;;22.86;27.63;101171.20;1635065;81;21068;-37
2021/09/08 12:04:53;;;;;;;27.73;10.60;;;;;;;22.81;27.06;101174.89;1665687;83;21543;-39
2021/09/08 12:07:30;;;;;;;13.53;6.60;;;;;;;22.69;27.13;101180.68;1643211;82;21184;-37
2021/09/08 12:10:48;;;;;;;4.25;2.77;;;;;;;22.64;26.48;101177.30;1692737;83;21150;-39
2021/09/08 12:13:35;;;;;;;14.18;6.10;;;;;;;22.56;25.74;101168.26;1718446;81;21111;-39
2021/09/08 12:16:16;;;;;;;7.50;3.33;;;;;;;22.51;26.51;101168.02;1677104;82;21718;-37
2021/09/08 12:18:55;;;;;;;6.12;2.98;;;;;;;22.54;25.24;101171.42;1680895;82;21629;-39
2021/09/08 12:21:28;;;;;;;4.62;3.15;;;;;;;22.55;25.70;101169.19;1707863;81;21900;-39
2021/09/08 12:24:33;;;;;;;12.13;7.65;;;;;;;22.58;25.18;101164.20;1673042;83;21111;-37
2021/09/08 12:27:44;;;;;;;6.37;3.12;;;;;;;22.57;25.79;101171.33;1691269;82;21489;-36
2021/09/08 12:33:11;;;;;;;7.00;2.40;;;;;;;22.37;25.25;101155.62;1681674;82;22081;-39
2021/09/08 12:35:51;;;;;;;6.40;2.27;;;;;;;22.36;25.93;101153.42;1652328;82;21107;-38
2021/09/08 12:38:49;;;;;;;4.03;2.15;;;;;;;22.41;26.11;101145.27;1680565;83;21098;-36
2021/09/08 12:41:59;;;;;;;5.03;2.33;;;;;;;22.39;26.30;101148.00;1682457;83;21528;-38
2021/09/08 12:44:38;;;;;;;5.55;2.35;;;;;;;22.54;26.08;101140.76;1652352;84;21257;-37
2021/09/08 12:47:28;;;;;;;3.42;2.15;;;;;;;22.76;25.57;101139.52;1620664;85;21558;-38
2021/09/08 12:50:01;;;;;;;6.00;2.30;;;;;;;22.88;25.62;101138.69;1635183;84;21048;-37
2021/09/08 12:52:36;;;;;;;8.40;2.62;;;;;;;22.95;25.06;101137.05;1625700;87;21272;-37
2021/09/08 12:55:08;;;;;;;4.60;2.65;;;;;;;22.98;25.69;101138.28;1619775;86;21110;-39
2021/09/08 12:58:07;;;;;;;3.58;2.05;;;;;;;23.04;25.80;101135.37;1612607;87;21184;-36
2021/09/08 13:01:09;;;;;;;3.20;2.45;;;;;;;23.09;24.79;101133.41;1639820;84;21109;-39
2021/09/08 13:04:09;;;;;;;12.47;3.27;;;;;;;23.20;24.56;101130.32;1629507;86;21408;-40
2021/09/08 13:07:07;;;;;;;4.35;2.50;;;;;;;23.23;25.35;101133.32;1628171;82;21115;-38
2021/09/08 13:09:38;;;;;;;5.05;2.58;;;;;;;23.13;25.15;101128.80;1682292;84;21104;-37
2021/09/08 13:12:15;;;;;;;2.35;1.90;;;;;;;23.09;25.07;101129.87;1585129;84;21655;-39
2021/09/08 13:14:46;;;;;;;4.10;2.60;;;;;;;23.15;24.84;101122.95;1606399;87;21052;-39
2021/09/08 13:17:16;;;;;;;3.95;2.47;;;;;;;23.33;24.46;101126.70;1622554;84;21150;-39
2021/09/08 13:19:44;;;;;;;4.40;2.42;;;;;;;23.42;24.65;101122.30;1640865;86;21512;-37
2021/09/08 13:22:14;;;;;;;5.80;2.37;;;;;;;23.38;24.91;101124.72;1609513;87;21104;-39
2021/09/08 13:24:46;;;;;;;3.52;2.52;;;;;;;23.34;24.18;101124.42;1596988;87;21052;-37
2021/09/08 13:27:14;;;;;;;4.85;2.75;;;;;;;23.35;24.35;101123.02;1617377;87;21112;-37
2021/09/08 13:29:43;;;;;;;3.87;2.30;;;;;;;23.38;24.12;101117.17;1595158;88;21121;-37
2021/09/08 13:32:11;;;;;;;14.28;6.47;;;;;;;23.53;23.87;101118.73;1611532;85;21144;-39
2021/09/08 13:37:05;;;;;;;7.28;3.10;;;;;;;23.65;24.52;101104.52;1638947;87;21610;-38
2021/09/08 13:39:35;;;;;;;4.35;2.80;;;;;;;23.64;24.59;101099.64;1611164;86;21058;-37
2021/09/08 13:42:04;;;;;;;4.28;2.85;;;;;;;23.67;24.10;101103.53;1649476;86;21070;-39
2021/09/08 13:44:33;;;;;;;5.37;2.65;;;;;;;23.63;23.86;101096.57;1636707;86;21121;-37
2021/09/08 13:47:04;;;;;;;8.73;2.65;;;;;;;23.59;24.25;101090.91;1601559;86;21099;-36
2021/09/08 13:49:43;;;;;;;;;;;;;;;;;;;;;
